TKJ4UL LTAC-LROP
Flight info
| Callsign | TKJ4UL |
|---|---|
| Flight time | 1h 29m |
| Altitude | 38000 |
| Route | YAVRU UA4 ERSEN UL615 BKZ UN617 MAKOL DCT WRN DCT KOMAN DCT OBUGA |
| Aircraft | A21N/M-SDE2E3FGHIRWXY/LB1 |
Departure
| Time | 2026-05-05 18:53 |
|---|---|
| Airport | Esenboğa International Airport (LTAC) |
Arrival
| Time | 2026-05-05 20:22 |
|---|---|
| Airport | Bucharest Henri Coandă International Airport (LROP) |
| Time | Latitude | Longitude | Altitude | Speed | Heading |
|---|---|---|---|---|---|
| 2026-05-05 18:23 | 40.11607 | 32.99120 | 3116 ft | 0 kts | 146° |
| 2026-05-05 18:38 | 40.11615 | 32.99113 | 3116 ft | 2 kts | 146° |
| 2026-05-05 18:38 | 40.11627 | 32.99102 | 3115 ft | 2 kts | 146° |
| 2026-05-05 18:38 | 40.11640 | 32.99091 | 3115 ft | 2 kts | 146° |
| 2026-05-05 18:38 | 40.11648 | 32.99084 | 3115 ft | 2 kts | 142° |
| 2026-05-05 18:39 | 40.11655 | 32.99066 | 3115 ft | 2 kts | 94° |
| 2026-05-05 18:39 | 40.11653 | 32.99049 | 3114 ft | 0 kts | 58° |
| 2026-05-05 18:39 | 40.11649 | 32.99043 | 3114 ft | 1 kts | 51° |
| 2026-05-05 18:39 | 40.11647 | 32.99040 | 3114 ft | 0 kts | 53° |
| 2026-05-05 18:43 | 40.11660 | 32.99062 | 3115 ft | 6 kts | 54° |
| 2026-05-05 18:43 | 40.11702 | 32.99121 | 3116 ft | 10 kts | 23° |
| 2026-05-05 18:43 | 40.11762 | 32.99110 | 3115 ft | 9 kts | 319° |
| 2026-05-05 18:44 | 40.11820 | 32.99042 | 3114 ft | 12 kts | 352° |
| 2026-05-05 18:44 | 40.11900 | 32.99095 | 3115 ft | 13 kts | 31° |
| 2026-05-05 18:44 | 40.11975 | 32.99161 | 3117 ft | 13 kts | 38° |
| 2026-05-05 18:44 | 40.12052 | 32.99240 | 3117 ft | 14 kts | 34° |
| 2026-05-05 18:45 | 40.12140 | 32.99323 | 3117 ft | 16 kts | 37° |
| 2026-05-05 18:45 | 40.12233 | 32.99412 | 3120 ft | 16 kts | 37° |
| 2026-05-05 18:45 | 40.12324 | 32.99496 | 3120 ft | 16 kts | 35° |
| 2026-05-05 18:45 | 40.12408 | 32.99578 | 3123 ft | 14 kts | 39° |
| 2026-05-05 18:46 | 40.12487 | 32.99655 | 3124 ft | 14 kts | 34° |
| 2026-05-05 18:46 | 40.12568 | 32.99731 | 3123 ft | 14 kts | 36° |
| 2026-05-05 18:46 | 40.12653 | 32.99812 | 3123 ft | 15 kts | 36° |
| 2026-05-05 18:46 | 40.12740 | 32.99894 | 3123 ft | 15 kts | 36° |
| 2026-05-05 18:47 | 40.12823 | 32.99974 | 3123 ft | 14 kts | 37° |
| 2026-05-05 18:47 | 40.12901 | 33.00048 | 3125 ft | 13 kts | 36° |
| 2026-05-05 18:47 | 40.12971 | 33.00113 | 3128 ft | 11 kts | 36° |
| 2026-05-05 18:47 | 40.13032 | 33.00172 | 3130 ft | 10 kts | 36° |
| 2026-05-05 18:48 | 40.13095 | 33.00231 | 3130 ft | 11 kts | 36° |
| 2026-05-05 18:48 | 40.13162 | 33.00294 | 3130 ft | 12 kts | 37° |
| 2026-05-05 18:48 | 40.13234 | 33.00363 | 3130 ft | 13 kts | 36° |
| 2026-05-05 18:48 | 40.13309 | 33.00435 | 3130 ft | 13 kts | 36° |
| 2026-05-05 18:49 | 40.13388 | 33.00510 | 3130 ft | 14 kts | 36° |
| 2026-05-05 18:49 | 40.13470 | 33.00588 | 3129 ft | 14 kts | 36° |
| 2026-05-05 18:49 | 40.13554 | 33.00669 | 3129 ft | 15 kts | 36° |
| 2026-05-05 18:49 | 40.13641 | 33.00751 | 3129 ft | 15 kts | 36° |
| 2026-05-05 18:50 | 40.13730 | 33.00836 | 3129 ft | 15 kts | 36° |
| 2026-05-05 18:50 | 40.13820 | 33.00921 | 3129 ft | 16 kts | 36° |
| 2026-05-05 18:50 | 40.13907 | 33.01009 | 3129 ft | 15 kts | 34° |
| 2026-05-05 18:50 | 40.13998 | 33.01072 | 3130 ft | 14 kts | 9° |
| 2026-05-05 18:51 | 40.14087 | 33.01029 | 3128 ft | 14 kts | 307° |
| 2026-05-05 18:51 | 40.14131 | 33.00899 | 3125 ft | 16 kts | 300° |
| 2026-05-05 18:51 | 40.14183 | 33.00799 | 3123 ft | 10 kts | 307° |
| 2026-05-05 18:51 | 40.14213 | 33.00728 | 3121 ft | 9 kts | 276° |
| 2026-05-05 18:52 | 40.14176 | 33.00657 | 3120 ft | 9 kts | 215° |
| 2026-05-05 18:52 | 40.14120 | 33.00605 | 3120 ft | 11 kts | 216° |
| 2026-05-05 18:52 | 40.13878 | 33.00370 | 3121 ft | 80 kts | 217° |
| 2026-05-05 18:52 | 40.13245 | 32.99765 | 3115 ft | 145 kts | 217° |
| 2026-05-05 18:53 | 40.12300 | 32.98851 | 3313 ft | 177 kts | 217° |
| 2026-05-05 18:53 | 40.11356 | 32.97943 | 4098 ft | 168 kts | 217° |
| 2026-05-05 18:53 | 40.10516 | 32.96954 | 4776 ft | 166 kts | 238° |
| 2026-05-05 18:53 | 40.10077 | 32.95585 | 5416 ft | 163 kts | 262° |
| 2026-05-05 18:54 | 40.10068 | 32.94149 | 6030 ft | 160 kts | 283° |
| 2026-05-05 18:54 | 40.10344 | 32.92607 | 6171 ft | 193 kts | 284° |
| 2026-05-05 18:54 | 40.10582 | 32.90786 | 6517 ft | 215 kts | 279° |
| 2026-05-05 18:54 | 40.10807 | 32.88779 | 6905 ft | 235 kts | 290° |
| 2026-05-05 18:55 | 40.11701 | 32.86872 | 7342 ft | 253 kts | 313° |
| 2026-05-05 18:55 | 40.12889 | 32.85176 | 7981 ft | 259 kts | 314° |
| 2026-05-05 18:55 | 40.14098 | 32.83362 | 8336 ft | 273 kts | 311° |
| 2026-05-05 18:55 | 40.15291 | 32.81406 | 8903 ft | 279 kts | 309° |
| 2026-05-05 18:56 | 40.16455 | 32.79370 | 9548 ft | 282 kts | 308° |
| 2026-05-05 18:56 | 40.17605 | 32.77283 | 10163 ft | 285 kts | 308° |
| 2026-05-05 18:56 | 40.18753 | 32.75151 | 10551 ft | 297 kts | 307° |
| 2026-05-05 18:56 | 40.19971 | 32.72863 | 10821 ft | 312 kts | 307° |
| 2026-05-05 18:57 | 40.21233 | 32.70467 | 11076 ft | 326 kts | 307° |
| 2026-05-05 18:57 | 40.22533 | 32.67988 | 11389 ft | 338 kts | 307° |
| 2026-05-05 18:57 | 40.23854 | 32.65453 | 11933 ft | 342 kts | 307° |
| 2026-05-05 18:57 | 40.25206 | 32.62855 | 12537 ft | 344 kts | 307° |
| 2026-05-05 18:58 | 40.26540 | 32.60285 | 13097 ft | 347 kts | 307° |
| 2026-05-05 18:58 | 40.27894 | 32.57677 | 13611 ft | 350 kts | 307° |
| 2026-05-05 18:58 | 40.29268 | 32.55030 | 14145 ft | 353 kts | 307° |
| 2026-05-05 18:58 | 40.30662 | 32.52340 | 14675 ft | 356 kts | 308° |
| 2026-05-05 18:59 | 40.32063 | 32.49637 | 15175 ft | 359 kts | 308° |
| 2026-05-05 18:59 | 40.33468 | 32.46928 | 15682 ft | 362 kts | 308° |
| 2026-05-05 18:59 | 40.34882 | 32.44196 | 16171 ft | 365 kts | 308° |
| 2026-05-05 18:59 | 40.36302 | 32.41452 | 16646 ft | 368 kts | 307° |
| 2026-05-05 19:00 | 40.37738 | 32.38671 | 17120 ft | 370 kts | 308° |
| 2026-05-05 19:00 | 40.39187 | 32.35858 | 17580 ft | 373 kts | 308° |
| 2026-05-05 19:00 | 40.40655 | 32.33013 | 18030 ft | 376 kts | 307° |
| 2026-05-05 19:00 | 40.42119 | 32.30168 | 18452 ft | 378 kts | 307° |
| 2026-05-05 19:01 | 40.43581 | 32.27325 | 18886 ft | 381 kts | 307° |
| 2026-05-05 19:01 | 40.45067 | 32.24431 | 19306 ft | 383 kts | 308° |
| 2026-05-05 19:01 | 40.46503 | 32.21477 | 19691 ft | 387 kts | 304° |
| 2026-05-05 19:01 | 40.47781 | 32.18322 | 20091 ft | 392 kts | 300° |
| 2026-05-05 19:02 | 40.48850 | 32.15042 | 20479 ft | 397 kts | 295° |
| 2026-05-05 19:02 | 40.49797 | 32.11602 | 20860 ft | 400 kts | 294° |
| 2026-05-05 19:02 | 40.50705 | 32.08139 | 21237 ft | 402 kts | 294° |
| 2026-05-05 19:02 | 40.51612 | 32.04668 | 21627 ft | 403 kts | 294° |
| 2026-05-05 19:03 | 40.52524 | 32.01203 | 21975 ft | 405 kts | 295° |
| 2026-05-05 19:03 | 40.53450 | 31.97693 | 22310 ft | 408 kts | 295° |
| 2026-05-05 19:03 | 40.54374 | 31.94205 | 22656 ft | 409 kts | 295° |
| 2026-05-05 19:03 | 40.55315 | 31.90660 | 22990 ft | 412 kts | 296° |
| 2026-05-05 19:04 | 40.56265 | 31.87083 | 23311 ft | 414 kts | 296° |
| 2026-05-05 19:04 | 40.57203 | 31.83542 | 23636 ft | 415 kts | 296° |
| 2026-05-05 19:04 | 40.58156 | 31.79938 | 23924 ft | 417 kts | 297° |
| 2026-05-05 19:04 | 40.59105 | 31.76360 | 24235 ft | 419 kts | 297° |
| 2026-05-05 19:05 | 40.60067 | 31.72723 | 24558 ft | 420 kts | 297° |
| 2026-05-05 19:05 | 40.61026 | 31.69088 | 24879 ft | 421 kts | 297° |
| 2026-05-05 19:05 | 40.61975 | 31.65482 | 25198 ft | 422 kts | 297° |
| 2026-05-05 19:05 | 40.62939 | 31.61815 | 25508 ft | 422 kts | 297° |
| 2026-05-05 19:06 | 40.63887 | 31.58209 | 25855 ft | 422 kts | 297° |
| 2026-05-05 19:06 | 40.64854 | 31.54523 | 26090 ft | 424 kts | 297° |
| 2026-05-05 19:06 | 40.65811 | 31.50861 | 26431 ft | 424 kts | 298° |
| 2026-05-05 19:06 | 40.66759 | 31.47239 | 26715 ft | 425 kts | 297° |
| 2026-05-05 19:07 | 40.67728 | 31.43536 | 26970 ft | 426 kts | 297° |
| 2026-05-05 19:07 | 40.68682 | 31.39878 | 27231 ft | 427 kts | 297° |
| 2026-05-05 19:07 | 40.69642 | 31.36190 | 27511 ft | 428 kts | 298° |
| 2026-05-05 19:07 | 40.70613 | 31.32453 | 27797 ft | 428 kts | 297° |
| 2026-05-05 19:08 | 40.71572 | 31.28750 | 28087 ft | 428 kts | 297° |
| 2026-05-05 19:08 | 40.72536 | 31.25027 | 28301 ft | 430 kts | 297° |
| 2026-05-05 19:08 | 40.73462 | 31.21306 | 28547 ft | 432 kts | 296° |
| 2026-05-05 19:08 | 40.74374 | 31.17522 | 28798 ft | 433 kts | 296° |
| 2026-05-05 19:09 | 40.75283 | 31.13733 | 29021 ft | 434 kts | 296° |
| 2026-05-05 19:09 | 40.76185 | 31.09973 | 29309 ft | 434 kts | 296° |
| 2026-05-05 19:09 | 40.77101 | 31.06164 | 29585 ft | 434 kts | 296° |
| 2026-05-05 19:09 | 40.77998 | 31.02428 | 29789 ft | 435 kts | 296° |
| 2026-05-05 19:10 | 40.78912 | 30.98627 | 30032 ft | 435 kts | 296° |
| 2026-05-05 19:10 | 40.79832 | 30.94785 | 30296 ft | 435 kts | 296° |
| 2026-05-05 19:10 | 40.80741 | 30.90990 | 30563 ft | 435 kts | 296° |
| 2026-05-05 19:10 | 40.81652 | 30.87185 | 30864 ft | 433 kts | 296° |
| 2026-05-05 19:11 | 40.82552 | 30.83430 | 31115 ft | 433 kts | 296° |
| 2026-05-05 19:11 | 40.83451 | 30.79664 | 31346 ft | 433 kts | 296° |
| 2026-05-05 19:11 | 40.84351 | 30.75882 | 31573 ft | 433 kts | 296° |
| 2026-05-05 19:11 | 40.85254 | 30.72083 | 31806 ft | 433 kts | 296° |
| 2026-05-05 19:12 | 40.86150 | 30.68287 | 32071 ft | 433 kts | 295° |
| 2026-05-05 19:12 | 40.86932 | 30.64482 | 32349 ft | 435 kts | 292° |
| 2026-05-05 19:12 | 40.87641 | 30.60587 | 32638 ft | 434 kts | 291° |
| 2026-05-05 19:12 | 40.88324 | 30.56754 | 32866 ft | 434 kts | 291° |
| 2026-05-05 19:13 | 40.89019 | 30.52848 | 33132 ft | 433 kts | 291° |
| 2026-05-05 19:13 | 40.89703 | 30.48995 | 33351 ft | 433 kts | 291° |
| 2026-05-05 19:13 | 40.90387 | 30.45156 | 33555 ft | 433 kts | 291° |
| 2026-05-05 19:13 | 40.91079 | 30.41260 | 33801 ft | 433 kts | 291° |
| 2026-05-05 19:14 | 40.91759 | 30.37418 | 34053 ft | 432 kts | 291° |
| 2026-05-05 19:14 | 40.92445 | 30.33542 | 34278 ft | 432 kts | 291° |
| 2026-05-05 19:14 | 40.93119 | 30.29711 | 34494 ft | 431 kts | 290° |
| 2026-05-05 19:14 | 40.93792 | 30.25889 | 34721 ft | 431 kts | 290° |
| 2026-05-05 19:15 | 40.94469 | 30.22037 | 34839 ft | 432 kts | 290° |
| 2026-05-05 19:15 | 40.95148 | 30.18170 | 34984 ft | 431 kts | 290° |
| 2026-05-05 19:15 | 40.95827 | 30.14287 | 35137 ft | 431 kts | 290° |
| 2026-05-05 19:15 | 40.96493 | 30.10472 | 35272 ft | 431 kts | 290° |
| 2026-05-05 19:16 | 40.97172 | 30.06577 | 35426 ft | 431 kts | 290° |
| 2026-05-05 19:16 | 40.97838 | 30.02753 | 35565 ft | 431 kts | 290° |
| 2026-05-05 19:16 | 40.98508 | 29.98876 | 35679 ft | 431 kts | 290° |
| 2026-05-05 19:16 | 40.99169 | 29.95041 | 35772 ft | 431 kts | 289° |
| 2026-05-05 19:17 | 41.00480 | 29.87317 | 35984 ft | 432 kts | 289° |
| 2026-05-05 19:17 | 41.01138 | 29.83441 | 36122 ft | 431 kts | 289° |
| 2026-05-05 19:17 | 41.01792 | 29.79570 | 36232 ft | 430 kts | 289° |
| 2026-05-05 19:18 | 41.03238 | 29.71943 | 36427 ft | 425 kts | 296° |
| 2026-05-05 19:18 | 41.06011 | 29.65188 | 36609 ft | 415 kts | 312° |
| 2026-05-05 19:19 | 41.09995 | 29.59799 | 36749 ft | 408 kts | 327° |
| 2026-05-05 19:19 | 41.12338 | 29.57703 | 36875 ft | 405 kts | 334° |
| 2026-05-05 19:19 | 41.14820 | 29.56070 | 36980 ft | 403 kts | 341° |
| 2026-05-05 19:20 | 41.20163 | 29.53743 | 37147 ft | 403 kts | 346° |
| 2026-05-05 19:20 | 41.25518 | 29.51523 | 37306 ft | 406 kts | 340° |
| 2026-05-05 19:21 | 41.27966 | 29.49713 | 37351 ft | 413 kts | 327° |
| 2026-05-05 19:21 | 41.30074 | 29.47088 | 37417 ft | 421 kts | 314° |
| 2026-05-05 19:21 | 41.33425 | 29.40674 | 37619 ft | 425 kts | 308° |
| 2026-05-05 19:22 | 41.36633 | 29.34015 | 37759 ft | 427 kts | 307° |
| 2026-05-05 19:22 | 41.39827 | 29.27380 | 37911 ft | 428 kts | 307° |
| 2026-05-05 19:23 | 41.43051 | 29.20698 | 38013 ft | 430 kts | 307° |
| 2026-05-05 19:23 | 41.46270 | 29.14046 | 38020 ft | 430 kts | 307° |
| 2026-05-05 19:24 | 41.49752 | 29.07656 | 38042 ft | 424 kts | 317° |
| 2026-05-05 19:24 | 41.54323 | 29.02808 | 38026 ft | 418 kts | 333° |
| 2026-05-05 19:25 | 41.59427 | 28.99184 | 38027 ft | 416 kts | 335° |
| 2026-05-05 19:25 | 41.64561 | 28.95629 | 38015 ft | 417 kts | 335° |
| 2026-05-05 19:26 | 41.69714 | 28.92036 | 38019 ft | 418 kts | 335° |
| 2026-05-05 19:26 | 41.74849 | 28.88441 | 38025 ft | 418 kts | 335° |
| 2026-05-05 19:27 | 41.79984 | 28.84833 | 38024 ft | 419 kts | 335° |
| 2026-05-05 19:27 | 41.85167 | 28.81185 | 38027 ft | 419 kts | 335° |
| 2026-05-05 19:28 | 41.90330 | 28.77545 | 38022 ft | 420 kts | 335° |
| 2026-05-05 19:28 | 41.95498 | 28.73896 | 38009 ft | 421 kts | 334° |
| 2026-05-05 19:29 | 42.00680 | 28.70228 | 38024 ft | 422 kts | 334° |
| 2026-05-05 19:29 | 42.05845 | 28.66565 | 38013 ft | 422 kts | 334° |
| 2026-05-05 19:30 | 42.11031 | 28.62880 | 38011 ft | 422 kts | 334° |
| 2026-05-05 19:30 | 42.16222 | 28.59185 | 38010 ft | 423 kts | 334° |
| 2026-05-05 19:31 | 42.21419 | 28.55479 | 38016 ft | 423 kts | 334° |
| 2026-05-05 19:31 | 42.26627 | 28.51758 | 38027 ft | 424 kts | 334° |
| 2026-05-05 19:32 | 42.31802 | 28.48056 | 38019 ft | 425 kts | 334° |
| 2026-05-05 19:32 | 42.37039 | 28.44300 | 38026 ft | 425 kts | 334° |
| 2026-05-05 19:33 | 42.42258 | 28.40548 | 38015 ft | 426 kts | 334° |
| 2026-05-05 19:33 | 42.47467 | 28.36801 | 38020 ft | 427 kts | 334° |
| 2026-05-05 19:34 | 42.52721 | 28.33011 | 38026 ft | 427 kts | 333° |
| 2026-05-05 19:35 | 42.60547 | 28.27352 | 38027 ft | 427 kts | 333° |
| 2026-05-05 19:35 | 42.65778 | 28.23561 | 38026 ft | 428 kts | 333° |
| 2026-05-05 19:36 | 42.71030 | 28.19748 | 38027 ft | 428 kts | 333° |
| 2026-05-05 19:36 | 42.76285 | 28.15924 | 38029 ft | 429 kts | 333° |
| 2026-05-05 19:37 | 42.81555 | 28.12083 | 38028 ft | 430 kts | 333° |
| 2026-05-05 19:37 | 42.86810 | 28.08245 | 38033 ft | 430 kts | 332° |
| 2026-05-05 19:38 | 42.92048 | 28.04412 | 38021 ft | 429 kts | 332° |
| 2026-05-05 19:38 | 42.97322 | 28.00545 | 38040 ft | 430 kts | 332° |
| 2026-05-05 19:39 | 43.02579 | 27.96682 | 38028 ft | 429 kts | 332° |
| 2026-05-05 19:39 | 43.07803 | 27.92837 | 38034 ft | 430 kts | 332° |
| 2026-05-05 19:40 | 43.13100 | 27.88931 | 38031 ft | 431 kts | 332° |
| 2026-05-05 19:40 | 43.18238 | 27.84806 | 38025 ft | 431 kts | 326° |
| 2026-05-05 19:41 | 43.22922 | 27.79652 | 38025 ft | 432 kts | 317° |
| 2026-05-05 19:41 | 43.26933 | 27.73541 | 38026 ft | 433 kts | 309° |
| 2026-05-05 19:42 | 43.30327 | 27.66751 | 38012 ft | 432 kts | 305° |
| 2026-05-05 19:42 | 43.31947 | 27.63364 | 37824 ft | 428 kts | 305° |
| 2026-05-05 19:42 | 43.33579 | 27.59945 | 37351 ft | 426 kts | 305° |
| 2026-05-05 19:42 | 43.35187 | 27.56578 | 36797 ft | 424 kts | 305° |
| 2026-05-05 19:43 | 43.36781 | 27.53240 | 36281 ft | 420 kts | 305° |
| 2026-05-05 19:43 | 43.38392 | 27.49866 | 35788 ft | 419 kts | 305° |
| 2026-05-05 19:43 | 43.39974 | 27.46551 | 35236 ft | 419 kts | 305° |
| 2026-05-05 19:43 | 43.41558 | 27.43229 | 34680 ft | 419 kts | 305° |
| 2026-05-05 19:44 | 43.43162 | 27.39861 | 34050 ft | 420 kts | 305° |
| 2026-05-05 19:44 | 43.44752 | 27.36521 | 33372 ft | 420 kts | 305° |
| 2026-05-05 19:44 | 43.46359 | 27.33140 | 32666 ft | 422 kts | 304° |
| 2026-05-05 19:44 | 43.47958 | 27.29773 | 31965 ft | 423 kts | 304° |
| 2026-05-05 19:45 | 43.49555 | 27.26405 | 31258 ft | 424 kts | 304° |
| 2026-05-05 19:45 | 43.51149 | 27.23040 | 30551 ft | 424 kts | 304° |
| 2026-05-05 19:45 | 43.52753 | 27.19650 | 29801 ft | 425 kts | 304° |
| 2026-05-05 19:45 | 43.54358 | 27.16251 | 29116 ft | 424 kts | 305° |
| 2026-05-05 19:46 | 43.55951 | 27.12876 | 28589 ft | 420 kts | 305° |
| 2026-05-05 19:46 | 43.57526 | 27.09534 | 28034 ft | 417 kts | 305° |
| 2026-05-05 19:46 | 43.59106 | 27.06181 | 27457 ft | 414 kts | 305° |
| 2026-05-05 19:46 | 43.60661 | 27.02876 | 26883 ft | 411 kts | 306° |
| 2026-05-05 19:47 | 43.62207 | 26.99583 | 26325 ft | 409 kts | 306° |
| 2026-05-05 19:47 | 43.63733 | 26.96333 | 25779 ft | 405 kts | 306° |
| 2026-05-05 19:47 | 43.65266 | 26.93064 | 25263 ft | 402 kts | 306° |
| 2026-05-05 19:47 | 43.66765 | 26.89864 | 24738 ft | 399 kts | 306° |
| 2026-05-05 19:48 | 43.68251 | 26.86690 | 24189 ft | 396 kts | 306° |
| 2026-05-05 19:48 | 43.69747 | 26.83491 | 23629 ft | 394 kts | 306° |
| 2026-05-05 19:48 | 43.71227 | 26.80324 | 23077 ft | 392 kts | 307° |
| 2026-05-05 19:48 | 43.72686 | 26.77198 | 22530 ft | 390 kts | 307° |
| 2026-05-05 19:49 | 43.74161 | 26.74033 | 21983 ft | 388 kts | 307° |
| 2026-05-05 19:49 | 43.75606 | 26.70930 | 21462 ft | 385 kts | 307° |
| 2026-05-05 19:49 | 43.77042 | 26.67842 | 20959 ft | 383 kts | 307° |
| 2026-05-05 19:49 | 43.78469 | 26.64768 | 20451 ft | 380 kts | 307° |
| 2026-05-05 19:50 | 43.79885 | 26.61716 | 19934 ft | 378 kts | 307° |
| 2026-05-05 19:50 | 43.81295 | 26.58675 | 19433 ft | 375 kts | 307° |
| 2026-05-05 19:50 | 43.82690 | 26.55663 | 18927 ft | 373 kts | 307° |
| 2026-05-05 19:50 | 43.84093 | 26.52631 | 18414 ft | 371 kts | 307° |
| 2026-05-05 19:51 | 43.85478 | 26.49633 | 17925 ft | 369 kts | 307° |
| 2026-05-05 19:51 | 43.86840 | 26.46684 | 17433 ft | 367 kts | 307° |
| 2026-05-05 19:51 | 43.88221 | 26.43689 | 16946 ft | 365 kts | 307° |
| 2026-05-05 19:51 | 43.89561 | 26.40781 | 16483 ft | 362 kts | 307° |
| 2026-05-05 19:52 | 43.90921 | 26.37827 | 15999 ft | 360 kts | 307° |
| 2026-05-05 19:52 | 43.92251 | 26.34933 | 15533 ft | 357 kts | 307° |
| 2026-05-05 19:52 | 43.93575 | 26.32050 | 15069 ft | 355 kts | 307° |
| 2026-05-05 19:52 | 43.94899 | 26.29164 | 14581 ft | 353 kts | 307° |
| 2026-05-05 19:53 | 43.96207 | 26.26309 | 14092 ft | 352 kts | 307° |
| 2026-05-05 19:53 | 43.97564 | 26.23513 | 13620 ft | 347 kts | 313° |
| 2026-05-05 19:53 | 43.99165 | 26.21072 | 13149 ft | 340 kts | 321° |
| 2026-05-05 19:53 | 44.00981 | 26.19039 | 12683 ft | 334 kts | 328° |
| 2026-05-05 19:54 | 44.02861 | 26.17200 | 12224 ft | 331 kts | 329° |
| 2026-05-05 19:54 | 44.04745 | 26.15395 | 11872 ft | 324 kts | 329° |
| 2026-05-05 19:54 | 44.06559 | 26.13645 | 11681 ft | 314 kts | 329° |
| 2026-05-05 19:54 | 44.08331 | 26.11926 | 11486 ft | 303 kts | 329° |
| 2026-05-05 19:55 | 44.10029 | 26.10272 | 11299 ft | 293 kts | 330° |
| 2026-05-05 19:55 | 44.11681 | 26.08660 | 11117 ft | 284 kts | 330° |
| 2026-05-05 19:55 | 44.13260 | 26.07116 | 10859 ft | 278 kts | 330° |
| 2026-05-05 19:55 | 44.14845 | 26.05567 | 10484 ft | 277 kts | 330° |
| 2026-05-05 19:56 | 44.16409 | 26.04037 | 10137 ft | 275 kts | 330° |
| 2026-05-05 19:56 | 44.17974 | 26.02506 | 9855 ft | 274 kts | 330° |
| 2026-05-05 19:56 | 44.19529 | 26.00982 | 9575 ft | 273 kts | 329° |
| 2026-05-05 19:56 | 44.21072 | 25.99470 | 9307 ft | 272 kts | 329° |
| 2026-05-05 19:57 | 44.22613 | 25.97956 | 9038 ft | 271 kts | 329° |
| 2026-05-05 19:57 | 44.24148 | 25.96448 | 8770 ft | 270 kts | 329° |
| 2026-05-05 19:57 | 44.25686 | 25.94938 | 8469 ft | 270 kts | 329° |
| 2026-05-05 19:57 | 44.27214 | 25.93433 | 8191 ft | 267 kts | 329° |
| 2026-05-05 19:58 | 44.28706 | 25.91962 | 7897 ft | 263 kts | 329° |
| 2026-05-05 19:58 | 44.30200 | 25.90489 | 7599 ft | 259 kts | 329° |
| 2026-05-05 19:58 | 44.31655 | 25.89056 | 7305 ft | 255 kts | 329° |
| 2026-05-05 19:58 | 44.33096 | 25.87635 | 7016 ft | 252 kts | 329° |
| 2026-05-05 19:59 | 44.34508 | 25.86241 | 6727 ft | 249 kts | 329° |
| 2026-05-05 19:59 | 44.35922 | 25.84846 | 6380 ft | 246 kts | 329° |
| 2026-05-05 19:59 | 44.37301 | 25.83483 | 6071 ft | 243 kts | 329° |
| 2026-05-05 19:59 | 44.38677 | 25.82125 | 5811 ft | 241 kts | 328° |
| 2026-05-05 20:00 | 44.40028 | 25.80791 | 5502 ft | 238 kts | 328° |
| 2026-05-05 20:00 | 44.41373 | 25.79459 | 5194 ft | 236 kts | 328° |
| 2026-05-05 20:00 | 44.42709 | 25.78137 | 4892 ft | 234 kts | 328° |
| 2026-05-05 20:00 | 44.44035 | 25.76822 | 4584 ft | 232 kts | 327° |
| 2026-05-05 20:01 | 44.45351 | 25.75517 | 4261 ft | 231 kts | 327° |
| 2026-05-05 20:01 | 44.46650 | 25.74227 | 3954 ft | 229 kts | 327° |
| 2026-05-05 20:01 | 44.48027 | 25.73176 | 3614 ft | 225 kts | 348° |
| 2026-05-05 20:01 | 44.49554 | 25.73106 | 3295 ft | 220 kts | 14° |
| 2026-05-05 20:02 | 44.50933 | 25.73968 | 2985 ft | 217 kts | 38° |
| 2026-05-05 20:02 | 44.51916 | 25.75542 | 2687 ft | 216 kts | 60° |
| 2026-05-05 20:02 | 44.52599 | 25.77354 | 2524 ft | 207 kts | 62° |
| 2026-05-05 20:02 | 44.53227 | 25.79093 | 2539 ft | 190 kts | 62° |
| 2026-05-05 20:03 | 44.53808 | 25.80680 | 2581 ft | 180 kts | 61° |
| 2026-05-05 20:03 | 44.54328 | 25.82258 | 2538 ft | 180 kts | 71° |
| 2026-05-05 20:03 | 44.54607 | 25.83971 | 2530 ft | 180 kts | 78° |
| 2026-05-05 20:03 | 44.54805 | 25.85720 | 2524 ft | 180 kts | 81° |
| 2026-05-05 20:04 | 44.54962 | 25.87454 | 2522 ft | 180 kts | 82° |
| 2026-05-05 20:04 | 44.55099 | 25.89207 | 2522 ft | 181 kts | 82° |
| 2026-05-05 20:04 | 44.55226 | 25.90949 | 2452 ft | 181 kts | 83° |
| 2026-05-05 20:04 | 44.55353 | 25.92711 | 2242 ft | 179 kts | 83° |
| 2026-05-05 20:05 | 44.55474 | 25.94383 | 2005 ft | 166 kts | 83° |
| 2026-05-05 20:05 | 44.55586 | 25.95919 | 1817 ft | 151 kts | 83° |
| 2026-05-05 20:05 | 44.55689 | 25.97318 | 1615 ft | 137 kts | 83° |
| 2026-05-05 20:05 | 44.55787 | 25.98633 | 1467 ft | 136 kts | 83° |
| 2026-05-05 20:06 | 44.55886 | 25.99952 | 1313 ft | 136 kts | 83° |
| 2026-05-05 20:06 | 44.55985 | 26.01275 | 1154 ft | 136 kts | 83° |
| 2026-05-05 20:06 | 44.56084 | 26.02590 | 990 ft | 136 kts | 84° |
| 2026-05-05 20:06 | 44.56182 | 26.03908 | 820 ft | 136 kts | 83° |
| 2026-05-05 20:07 | 44.56284 | 26.05239 | 653 ft | 141 kts | 83° |
| 2026-05-05 20:07 | 44.56404 | 26.06708 | 699 ft | 163 kts | 83° |
| 2026-05-05 20:07 | 44.56549 | 26.08390 | 814 ft | 184 kts | 82° |
| 2026-05-05 20:07 | 44.56719 | 26.10243 | 1303 ft | 205 kts | 82° |
| 2026-05-05 20:08 | 44.56912 | 26.12277 | 1885 ft | 212 kts | 82° |
| 2026-05-05 20:08 | 44.57102 | 26.14328 | 2235 ft | 217 kts | 81° |
| 2026-05-05 20:08 | 44.57309 | 26.16478 | 2661 ft | 225 kts | 81° |
| 2026-05-05 20:08 | 44.57525 | 26.18647 | 3142 ft | 232 kts | 81° |
| 2026-05-05 20:09 | 44.57693 | 26.20961 | 3582 ft | 243 kts | 83° |
| 2026-05-05 20:09 | 44.57542 | 26.23315 | 3943 ft | 248 kts | 108° |
| 2026-05-05 20:09 | 44.56593 | 26.25341 | 4018 ft | 254 kts | 136° |
| 2026-05-05 20:09 | 44.55037 | 26.26516 | 4020 ft | 259 kts | 165° |
| 2026-05-05 20:10 | 44.53231 | 26.26642 | 4033 ft | 261 kts | 182° |
| 2026-05-05 20:10 | 44.51427 | 26.26397 | 4029 ft | 262 kts | 185° |
| 2026-05-05 20:10 | 44.49609 | 26.26086 | 4028 ft | 262 kts | 186° |
| 2026-05-05 20:10 | 44.47814 | 26.25536 | 4012 ft | 263 kts | 205° |
| 2026-05-05 20:11 | 44.46397 | 26.24000 | 4019 ft | 263 kts | 234° |
| 2026-05-05 20:11 | 44.45670 | 26.21701 | 4021 ft | 259 kts | 264° |
| 2026-05-05 20:11 | 44.45712 | 26.19218 | 4032 ft | 256 kts | 278° |
| 2026-05-05 20:11 | 44.45850 | 26.16708 | 4027 ft | 257 kts | 276° |
| 2026-05-05 20:12 | 44.45960 | 26.14231 | 4025 ft | 257 kts | 276° |
| 2026-05-05 20:12 | 44.45919 | 26.11723 | 4023 ft | 258 kts | 267° |
| 2026-05-05 20:12 | 44.45729 | 26.09244 | 4023 ft | 258 kts | 265° |
| 2026-05-05 20:12 | 44.45507 | 26.06730 | 4023 ft | 259 kts | 265° |
| 2026-05-05 20:13 | 44.45284 | 26.04231 | 4022 ft | 258 kts | 265° |
| 2026-05-05 20:13 | 44.45063 | 26.01749 | 4022 ft | 258 kts | 265° |
| 2026-05-05 20:13 | 44.44844 | 25.99255 | 3929 ft | 258 kts | 265° |
| 2026-05-05 20:13 | 44.44631 | 25.96809 | 3700 ft | 252 kts | 265° |
| 2026-05-05 20:14 | 44.44421 | 25.94399 | 3491 ft | 245 kts | 265° |
| 2026-05-05 20:14 | 44.44218 | 25.92075 | 3283 ft | 239 kts | 265° |
| 2026-05-05 20:14 | 44.44021 | 25.89808 | 3087 ft | 232 kts | 265° |
| 2026-05-05 20:14 | 44.43830 | 25.87614 | 2926 ft | 225 kts | 265° |
| 2026-05-05 20:15 | 44.43708 | 25.85464 | 2750 ft | 216 kts | 278° |
| 2026-05-05 20:15 | 44.44228 | 25.83609 | 2566 ft | 202 kts | 315° |
| 2026-05-05 20:15 | 44.45351 | 25.82633 | 2511 ft | 182 kts | 347° |
| 2026-05-05 20:15 | 44.46550 | 25.82161 | 2591 ft | 179 kts | 342° |
| 2026-05-05 20:16 | 44.47715 | 25.81521 | 2572 ft | 180 kts | 340° |
| 2026-05-05 20:16 | 44.48861 | 25.80850 | 2539 ft | 180 kts | 339° |
| 2026-05-05 20:16 | 44.50062 | 25.80386 | 2519 ft | 178 kts | 357° |
| 2026-05-05 20:16 | 44.51295 | 25.80394 | 2526 ft | 178 kts | 4° |
| 2026-05-05 20:17 | 44.52538 | 25.80495 | 2522 ft | 178 kts | 5° |
| 2026-05-05 20:17 | 44.53709 | 25.80935 | 2496 ft | 177 kts | 36° |
| 2026-05-05 20:17 | 44.54406 | 25.82312 | 2522 ft | 178 kts | 70° |
| 2026-05-05 20:17 | 44.54673 | 25.84011 | 2530 ft | 179 kts | 79° |
| 2026-05-05 20:18 | 44.54836 | 25.85738 | 2525 ft | 179 kts | 82° |
| 2026-05-05 20:18 | 44.54971 | 25.87488 | 2521 ft | 179 kts | 83° |
| 2026-05-05 20:18 | 44.55096 | 25.89215 | 2520 ft | 179 kts | 83° |
| 2026-05-05 20:18 | 44.55219 | 25.90939 | 2447 ft | 179 kts | 83° |
| 2026-05-05 20:19 | 44.55345 | 25.92674 | 2238 ft | 177 kts | 83° |
| 2026-05-05 20:19 | 44.55466 | 25.94331 | 2004 ft | 165 kts | 83° |
| 2026-05-05 20:19 | 44.55578 | 25.95846 | 1820 ft | 148 kts | 83° |
| 2026-05-05 20:19 | 44.55680 | 25.97225 | 1617 ft | 137 kts | 83° |
| 2026-05-05 20:20 | 44.55779 | 25.98535 | 1477 ft | 136 kts | 83° |
| 2026-05-05 20:20 | 44.55878 | 25.99860 | 1323 ft | 136 kts | 83° |
| 2026-05-05 20:20 | 44.55977 | 26.01181 | 1164 ft | 137 kts | 83° |
| 2026-05-05 20:20 | 44.56077 | 26.02518 | 997 ft | 137 kts | 83° |
| 2026-05-05 20:21 | 44.56176 | 26.03828 | 829 ft | 137 kts | 83° |
| 2026-05-05 20:21 | 44.56276 | 26.05154 | 658 ft | 137 kts | 83° |
| 2026-05-05 20:21 | 44.56383 | 26.06484 | 496 ft | 137 kts | 83° |
| 2026-05-05 20:21 | 44.56484 | 26.07826 | 373 ft | 137 kts | 83° |
| 2026-05-05 20:22 | 44.56572 | 26.09086 | 308 ft | 108 kts | 83° |
| 2026-05-05 20:22 | 44.56631 | 26.09837 | 307 ft | 63 kts | 84° |
| 2026-05-05 20:22 | 44.56667 | 26.10312 | 304 ft | 36 kts | 83° |
| 2026-05-05 20:22 | 44.56688 | 26.10596 | 305 ft | 23 kts | 84° |
| 2026-05-05 20:23 | 44.56738 | 26.10759 | 304 ft | 14 kts | 20° |
| 2026-05-05 20:23 | 44.56839 | 26.10758 | 304 ft | 14 kts | 357° |
| 2026-05-05 20:23 | 44.56935 | 26.10738 | 306 ft | 13 kts | 348° |
| 2026-05-05 20:23 | 44.57011 | 26.10686 | 307 ft | 11 kts | 314° |
| 2026-05-05 20:24 | 44.57055 | 26.10591 | 308 ft | 11 kts | 301° |
| 2026-05-05 20:24 | 44.57069 | 26.10482 | 308 ft | 11 kts | 259° |
| 2026-05-05 20:24 | 44.57060 | 26.10367 | 308 ft | 12 kts | 266° |
| 2026-05-05 20:24 | 44.57052 | 26.10253 | 309 ft | 11 kts | 262° |
| 2026-05-05 20:25 | 44.57043 | 26.10138 | 308 ft | 12 kts | 263° |
| 2026-05-05 20:25 | 44.57034 | 26.10018 | 308 ft | 12 kts | 264° |
| 2026-05-05 20:25 | 44.57024 | 26.09896 | 310 ft | 11 kts | 263° |
| 2026-05-05 20:25 | 44.57013 | 26.09788 | 311 ft | 11 kts | 263° |
| 2026-05-05 20:26 | 44.57006 | 26.09675 | 311 ft | 12 kts | 265° |
| 2026-05-05 20:26 | 44.56998 | 26.09552 | 311 ft | 13 kts | 265° |
| 2026-05-05 20:26 | 44.56989 | 26.09421 | 311 ft | 13 kts | 266° |
| 2026-05-05 20:26 | 44.56979 | 26.09282 | 310 ft | 15 kts | 264° |
| 2026-05-05 20:27 | 44.56967 | 26.09123 | 308 ft | 17 kts | 266° |
| 2026-05-05 20:27 | 44.56954 | 26.08957 | 308 ft | 17 kts | 262° |
| 2026-05-05 20:27 | 44.56940 | 26.08789 | 306 ft | 17 kts | 263° |
| 2026-05-05 20:27 | 44.56925 | 26.08620 | 309 ft | 16 kts | 258° |
| 2026-05-05 20:28 | 44.56897 | 26.08473 | 309 ft | 14 kts | 271° |
| 2026-05-05 20:28 | 44.56942 | 26.08362 | 313 ft | 12 kts | 302° |
| 2026-05-05 20:28 | 44.56947 | 26.08270 | 314 ft | 8 kts | 264° |
| 2026-05-05 20:28 | 44.56942 | 26.08191 | 317 ft | 6 kts | 267° |
| 2026-05-05 20:29 | 44.56951 | 26.08143 | 318 ft | 4 kts | 313° |
| 2026-05-05 20:29 | 44.56968 | 26.08131 | 318 ft | 2 kts | 349° |
| 2026-05-05 20:29 | 44.56991 | 26.08132 | 318 ft | 3 kts | 5° |
| 2026-05-05 20:29 | 44.57014 | 26.08131 | 318 ft | 0 kts | 354° |